This is the latest recevied weather packets stored in our database for station/object DL5DI-H. If no packets are shown the sender has not sent any weather packets the latest 10 day(s).
| Time | Temp. | Humidity | Pressure | Rain* | Wind** | Luminosity | Snow |
|---|---|---|---|---|---|---|---|
| 1777381800 | 22.78° C | 35% | 1019.9 hPa | 0 mm | - | - | - |
| 1777380601 | 22.78° C | 35% | 1019.9 hPa | 0 mm | - | - | - |
| 1777380001 | 22.22° C | 36% | 1019.9 hPa | 0 mm | - | - | - |
| 1777378801 | 21.67° C | 36% | 1019.8 hPa | 0 mm | - | - | - |
| 1777378201 | 21.67° C | 39% | 1019.9 hPa | 0 mm | - | - | - |
| 1777377001 | 21.11° C | 39% | 1019.9 hPa | 0 mm | - | - | - |
| 1777376401 | 18.89° C | 44% | 1020.2 hPa | 0 mm | - | - | - |
| 1777373405 | 18.33° C | 45% | 1020.2 hPa | 0 mm | - | - | - |
| 1777372205 | 17.78° C | 47% | 1020.3 hPa | 0 mm | - | - | - |
| 1777371605 | 17.22° C | 48% | 1020.3 hPa | 0 mm | - | - | - |
| 1777371001 | 17.22° C | 48% | 1020.3 hPa | 0 mm | - | - | - |
| 1777370405 | 16.67° C | 51% | 1020.3 hPa | 0 mm | - | - | - |
| 1777369201 | 13.89° C | 56% | 1020.4 hPa | 0 mm | - | - | - |
| 1777368601 | 13.89° C | 56% | 1020.4 hPa | 0 mm | - | - | - |
| 1777367401 | 13.89° C | 56% | 1020.4 hPa | 0 mm | - | - | - |
| 1777365004 | 12.78° C | 59% | 1020.4 hPa | 0 mm | - | - | - |
| 1777364401 | 12.78° C | 59% | 1020.3 hPa | 0 mm | - | - | - |
| 1777363801 | 12.22° C | 60% | 1020.2 hPa | 0 mm | - | - | - |
| 1777363205 | 12.22° C | 60% | 1020.2 hPa | 0 mm | - | - | - |
| 1777362605 | 11.67° C | 60% | 1020.2 hPa | 0 mm | - | - | - |
| 1777362000 | 10.56° C | 67% | 1020.2 hPa | 0 mm | - | - | - |
| 1777361404 | 10.56° C | 67% | 1020.2 hPa | 0 mm | - | - | - |
| 1777360801 | 10.56° C | 67% | 1020.2 hPa | 0 mm | - | - | - |
| 1777360201 | 10.56° C | 67% | 1020.2 hPa | 0 mm | - | - | - |
| 1777359605 | 10.56° C | 67% | 1020.2 hPa | 0 mm | - | - | - |
* Rain latest hour (hover to see other rain measurements)
** Current wind speed in m/s (hover to see current wind gust speed)